Time;durP1;ratioP1;P1;durP2;ratioP2;P2;SDS_P1;SDS_P2;PMS_P1;PMS_P2;Temp;Humidity;BMP_temperature;BMP_pressure;BME280_temperature;BME280_humidity;BME280_pressure;Samples;Min_cycle;Max_cycle;Signal;HPM_P1;HPM_P2
2021/07/11 00:00:37;;;;;;;4.28;2.67;;;;;;;;;;4955958;29;20039;-75
2021/07/11 00:03:03;;;;;;;4.25;2.35;;;;;;;;;;4956576;29;20726;-75
2021/07/11 00:05:29;;;;;;;12.57;3.33;;;;;;;;;;4956235;29;20106;-74
2021/07/11 00:07:56;;;;;;;4.18;2.05;;;;;;;;;;4956623;29;20047;-75
2021/07/11 00:10:22;;;;;;;5.55;2.58;;;;;;;;;;4956000;29;20094;-75
2021/07/11 00:12:48;;;;;;;5.43;2.67;;;;;;;;;;4955075;29;20082;-75
2021/07/11 00:15:16;;;;;;;6.38;2.17;;;;;;;;;;4955109;28;20085;-75
2021/07/11 00:17:43;;;;;;;5.75;2.45;;;;;;;;;;4956411;29;20054;-75
2021/07/11 00:20:10;;;;;;;8.10;2.60;;;;;;;;;;4955497;28;20098;-75
2021/07/11 00:22:36;;;;;;;3.53;2.50;;;;;;;;;;4955844;29;20059;-75
2021/07/11 00:25:02;;;;;;;4.78;2.53;;;;;;;;;;4956097;28;20027;-75
2021/07/11 00:27:28;;;;;;;3.88;2.45;;;;;;;;;;4956173;28;20035;-75
2021/07/11 00:29:54;;;;;;;5.40;2.30;;;;;;;;;;4955139;28;20110;-75
2021/07/11 00:32:20;;;;;;;6.93;2.65;;;;;;;;;;4954889;29;20059;-75
2021/07/11 00:34:46;;;;;;;3.35;2.17;;;;;;;;;;4956020;28;20019;-76
2021/07/11 00:37:12;;;;;;;3.03;2.47;;;;;;;;;;4955650;28;20042;-75
2021/07/11 00:39:38;;;;;;;2.95;2.30;;;;;;;;;;4955424;28;20047;-74
2021/07/11 00:42:04;;;;;;;28.33;3.00;;;;;;;;;;4955775;28;20117;-75
2021/07/11 00:44:30;;;;;;;6.28;2.55;;;;;;;;;;4954450;29;20091;-74
2021/07/11 00:46:56;;;;;;;3.53;2.50;;;;;;;;;;4955703;28;20452;-75
2021/07/11 00:49:22;;;;;;;7.45;2.38;;;;;;;;;;4955182;28;20031;-75
2021/07/11 00:51:48;;;;;;;6.97;2.30;;;;;;;;;;4954237;29;20054;-74
2021/07/11 00:54:14;;;;;;;2.85;2.38;;;;;;;;;;4955645;28;20035;-75
2021/07/11 00:56:44;;;;;;;3.10;2.30;;;;;;;;;;4955555;28;20031;-74
2021/07/11 00:59:10;;;;;;;3.88;2.10;;;;;;;;;;4955002;28;20431;-75
2021/07/11 01:01:36;;;;;;;4.55;2.33;;;;;;;;;;4955777;28;20031;-75
2021/07/11 01:04:03;;;;;;;3.35;2.20;;;;;;;;;;4956912;28;20082;-75
2021/07/11 01:06:34;;;;;;;4.82;2.70;;;;;;;;;;4957208;28;20055;-75
2021/07/11 01:09:02;;;;;;;3.47;2.30;;;;;;;;;;4957356;28;20043;-75
2021/07/11 01:11:29;;;;;;;7.78;2.63;;;;;;;;;;4956557;28;20019;-74
2021/07/11 01:13:57;;;;;;;3.90;2.40;;;;;;;;;;4955206;28;20086;-75
2021/07/11 01:16:25;;;;;;;4.53;2.30;;;;;;;;;;4956322;28;20031;-74
2021/07/11 01:18:52;;;;;;;4.57;2.70;;;;;;;;;;4953876;29;20035;-74
2021/07/11 01:21:19;;;;;;;6.40;2.58;;;;;;;;;;4953712;29;20055;-75
2021/07/11 01:23:51;;;;;;;3.80;2.38;;;;;;;;;;4955126;29;20381;-74
2021/07/11 01:26:17;;;;;;;8.50;2.73;;;;;;;;;;4954726;28;20388;-73
2021/07/11 01:28:44;;;;;;;3.70;2.60;;;;;;;;;;4954869;29;20497;-74
2021/07/11 01:31:11;;;;;;;6.63;2.45;;;;;;;;;;4954574;29;20047;-75
2021/07/11 01:33:39;;;;;;;4.70;2.65;;;;;;;;;;4954882;29;20023;-75
2021/07/11 01:36:06;;;;;;;3.40;2.33;;;;;;;;;;4954631;29;20023;-74
2021/07/11 01:38:34;;;;;;;6.05;2.13;;;;;;;;;;4954571;28;20047;-74
2021/07/11 01:41:01;;;;;;;6.93;2.50;;;;;;;;;;4954435;28;20035;-74
2021/07/11 01:43:27;;;;;;;3.00;2.60;;;;;;;;;;4954641;29;20027;-74
2021/07/11 01:45:54;;;;;;;4.68;2.92;;;;;;;;;;4954555;29;20033;-74
2021/07/11 01:48:20;;;;;;;4.85;2.80;;;;;;;;;;4977941;23;20036;-79
2021/07/11 01:50:51;;;;;;;5.75;2.42;;;;;;;;;;4962330;29;20031;-78
2021/07/11 01:53:18;;;;;;;7.03;2.85;;;;;;;;;;4963137;29;20038;-78
2021/07/11 01:55:44;;;;;;;4.90;2.67;;;;;;;;;;4961816;29;20031;-78
2021/07/11 01:58:10;;;;;;;5.85;2.60;;;;;;;;;;4958843;29;20127;-79
2021/07/11 02:00:36;;;;;;;3.17;2.75;;;;;;;;;;4956508;29;20035;-78
2021/07/11 02:03:02;;;;;;;3.50;2.38;;;;;;;;;;4956941;29;20151;-79
2021/07/11 02:05:28;;;;;;;6.05;2.95;;;;;;;;;;4958567;29;20027;-79
2021/07/11 02:07:54;;;;;;;4.63;2.35;;;;;;;;;;4959263;29;20031;-78
2021/07/11 02:10:20;;;;;;;4.78;2.80;;;;;;;;;;4959246;29;20034;-78
2021/07/11 02:12:58;;;;;;;4.88;2.55;;;;;;;;;;4963022;28;20483;-79
2021/07/11 02:15:29;;;;;;;4.65;2.63;;;;;;;;;;4978597;28;20034;-79
2021/07/11 02:17:56;;;;;;;8.50;3.00;;;;;;;;;;4978660;28;20034;-79
2021/07/11 02:20:23;;;;;;;3.25;2.50;;;;;;;;;;4960678;28;20062;-79
2021/07/11 02:22:50;;;;;;;5.60;2.60;;;;;;;;;;4976617;28;20569;-79
2021/07/11 02:25:17;;;;;;;10.90;2.60;;;;;;;;;;4975709;28;20495;-78
2021/07/11 02:27:45;;;;;;;5.65;2.40;;;;;;;;;;4976113;28;20027;-78
2021/07/11 02:30:14;;;;;;;6.95;2.78;;;;;;;;;;4975900;28;20023;-79
2021/07/11 02:32:44;;;;;;;3.63;2.67;;;;;;;;;;4978462;28;20030;-79
2021/07/11 02:35:11;;;;;;;3.33;2.65;;;;;;;;;;4969195;28;20078;-79
2021/07/11 02:37:40;;;;;;;4.35;2.90;;;;;;;;;;4958240;28;20036;-79
2021/07/11 02:40:07;;;;;;;6.47;3.03;;;;;;;;;;4958846;29;20058;-79
2021/07/11 02:42:33;;;;;;;5.78;2.90;;;;;;;;;;4960760;28;20031;-79
2021/07/11 02:45:01;;;;;;;6.03;2.60;;;;;;;;;;4964042;28;20042;-79
2021/07/11 02:47:29;;;;;;;5.20;2.65;;;;;;;;;;4980723;28;20027;-79
2021/07/11 02:49:57;;;;;;;4.35;2.83;;;;;;;;;;4961908;28;20058;-78
2021/07/11 02:52:24;;;;;;;5.32;2.50;;;;;;;;;;4961095;28;20031;-79
2021/07/11 02:54:57;;;;;;;3.70;2.47;;;;;;;;;;4978086;28;20046;-79
2021/07/11 02:57:25;;;;;;;6.93;2.70;;;;;;;;;;4961274;28;20098;-79
2021/07/11 02:59:53;;;;;;;8.23;3.30;;;;;;;;;;4960766;28;20022;-79
2021/07/11 03:02:20;;;;;;;4.13;2.78;;;;;;;;;;4976690;28;20027;-78
2021/07/11 03:04:46;;;;;;;4.38;2.58;;;;;;;;;;4958769;29;20038;-79
2021/07/11 03:07:12;;;;;;;7.25;3.38;;;;;;;;;;4958156;29;20051;-79
2021/07/11 03:09:41;;;;;;;5.25;2.65;;;;;;;;;;4957753;29;20023;-79
2021/07/11 03:12:07;;;;;;;4.25;2.72;;;;;;;;;;4958614;29;20496;-79
2021/07/11 03:14:33;;;;;;;5.50;2.90;;;;;;;;;;4976236;28;20043;-79
2021/07/11 03:17:01;;;;;;;6.95;2.65;;;;;;;;;;4977728;28;20058;-79
2021/07/11 03:19:28;;;;;;;11.05;2.80;;;;;;;;;;4976743;28;20403;-79
2021/07/11 03:21:55;;;;;;;5.18;2.80;;;;;;;;;;4976531;28;20143;-79
2021/07/11 03:24:22;;;;;;;2.78;2.38;;;;;;;;;;4977026;28;20031;-79
2021/07/11 03:26:49;;;;;;;6.57;2.83;;;;;;;;;;4977765;28;20455;-79
2021/07/11 03:29:25;;;;;;;5.00;2.47;;;;;;;;;;4976644;28;20287;-79
2021/07/11 03:31:52;;;;;;;6.10;2.80;;;;;;;;;;4966457;28;20448;-79
2021/07/11 03:34:18;;;;;;;8.23;3.22;;;;;;;;;;4958581;29;20479;-79
2021/07/11 03:36:44;;;;;;;8.80;3.15;;;;;;;;;;4957857;29;20523;-79
2021/07/11 03:39:10;;;;;;;8.70;3.00;;;;;;;;;;4957641;29;20059;-81
2021/07/11 03:41:38;;;;;;;8.35;2.80;;;;;;;;;;4958419;29;20043;-80
2021/07/11 03:44:05;;;;;;;6.28;2.97;;;;;;;;;;4972674;28;20031;-79
2021/07/11 03:46:33;;;;;;;6.88;3.08;;;;;;;;;;4977991;28;20423;-79
2021/07/11 03:49:00;;;;;;;3.65;2.45;;;;;;;;;;4977243;28;20031;-79
2021/07/11 03:51:28;;;;;;;6.72;2.85;;;;;;;;;;4981408;28;20487;-80
2021/07/11 03:53:55;;;;;;;6.22;2.83;;;;;;;;;;4981905;28;20041;-79
2021/07/11 03:56:24;;;;;;;3.97;2.90;;;;;;;;;;4988118;28;20034;-79
2021/07/11 03:58:51;;;;;;;8.68;3.22;;;;;;;;;;4984257;28;20042;-79
2021/07/11 04:01:21;;;;;;;3.60;3.03;;;;;;;;;;4960585;29;20023;-79
2021/07/11 04:03:47;;;;;;;5.32;2.85;;;;;;;;;;4960673;29;20024;-79
2021/07/11 04:06:15;;;;;;;7.68;2.75;;;;;;;;;;4961030;29;20167;-79
2021/07/11 04:08:42;;;;;;;6.88;2.78;;;;;;;;;;4960501;29;20035;-79
2021/07/11 04:11:08;;;;;;;4.53;3.15;;;;;;;;;;4960661;29;20106;-79
2021/07/11 04:13:34;;;;;;;6.18;3.00;;;;;;;;;;4971247;28;20085;-79
2021/07/11 04:16:02;;;;;;;6.95;3.03;;;;;;;;;;4980169;28;20057;-79
2021/07/11 04:18:29;;;;;;;5.38;2.65;;;;;;;;;;4979942;28;20407;-80
2021/07/11 04:20:56;;;;;;;7.90;3.10;;;;;;;;;;4979241;28;20035;-79
2021/07/11 04:23:28;;;;;;;4.28;2.97;;;;;;;;;;4980844;28;20026;-79
2021/07/11 04:25:56;;;;;;;7.32;2.67;;;;;;;;;;4983334;28;20027;-79
2021/07/11 04:28:23;;;;;;;4.47;3.15;;;;;;;;;;4972488;28;20055;-79
2021/07/11 04:30:49;;;;;;;7.32;3.22;;;;;;;;;;4959530;29;20027;-79
2021/07/11 04:33:15;;;;;;;4.80;2.83;;;;;;;;;;4956416;29;20058;-77
2021/07/11 04:35:41;;;;;;;5.75;3.00;;;;;;;;;;4956229;29;20040;-77
2021/07/11 04:38:07;;;;;;;4.30;2.70;;;;;;;;;;4955985;29;20051;-77
2021/07/11 04:40:33;;;;;;;9.48;3.00;;;;;;;;;;4955326;29;20551;-77
2021/07/11 04:42:59;;;;;;;6.68;2.53;;;;;;;;;;4961752;28;20055;-77
2021/07/11 04:45:25;;;;;;;7.70;2.75;;;;;;;;;;4975323;28;20034;-77
2021/07/11 04:47:51;;;;;;;8.98;2.58;;;;;;;;;;4975628;28;20025;-77
2021/07/11 04:50:17;;;;;;;4.72;2.53;;;;;;;;;;4974655;28;20416;-77
2021/07/11 04:52:43;;;;;;;7.05;2.58;;;;;;;;;;4957532;28;20484;-77
2021/07/11 04:55:10;;;;;;;4.65;2.35;;;;;;;;;;4924055;29;20042;-76
2021/07/11 04:57:36;;;;;;;4.80;2.33;;;;;;;;;;4936662;29;20023;-77
2021/07/11 05:00:04;;;;;;;3.10;2.20;;;;;;;;;;4936602;29;20544;-79
2021/07/11 05:02:30;;;;;;;6.93;2.50;;;;;;;;;;4940134;29;20034;-79
2021/07/11 05:04:56;;;;;;;12.55;2.72;;;;;;;;;;4940635;29;20031;-79
2021/07/11 05:07:22;;;;;;;3.45;2.45;;;;;;;;;;4940101;29;20028;-79
2021/07/11 05:09:48;;;;;;;5.35;2.63;;;;;;;;;;4939998;29;20027;-79
2021/07/11 05:12:14;;;;;;;3.75;2.35;;;;;;;;;;4940140;29;20481;-79
2021/07/11 05:14:40;;;;;;;10.25;2.65;;;;;;;;;;4940172;29;20112;-79
2021/07/11 05:17:06;;;;;;;5.70;2.53;;;;;;;;;;4940585;29;20067;-79
2021/07/11 05:19:32;;;;;;;4.30;2.42;;;;;;;;;;4939501;29;20036;-80
2021/07/11 05:21:58;;;;;;;6.20;2.35;;;;;;;;;;4939624;29;20059;-79
2021/07/11 05:24:24;;;;;;;5.90;2.20;;;;;;;;;;4939752;29;20032;-79
2021/07/11 05:26:50;;;;;;;7.57;2.67;;;;;;;;;;4939553;29;20183;-79
2021/07/11 05:29:16;;;;;;;5.10;2.58;;;;;;;;;;4937388;29;20038;-81
2021/07/11 05:31:42;;;;;;;4.68;2.33;;;;;;;;;;4941537;29;20032;-79
2021/07/11 05:34:08;;;;;;;4.53;2.47;;;;;;;;;;4938694;29;20038;-77
2021/07/11 05:36:34;;;;;;;10.02;2.67;;;;;;;;;;4938917;29;20028;-76
2021/07/11 05:39:00;;;;;;;9.55;2.97;;;;;;;;;;4938498;29;20408;-77
2021/07/11 05:41:26;;;;;;;4.75;2.38;;;;;;;;;;4938921;29;20488;-77
2021/07/11 05:43:52;;;;;;;6.43;2.40;;;;;;;;;;4948605;28;20059;-77
2021/07/11 05:46:18;;;;;;;5.47;2.55;;;;;;;;;;4977955;28;20022;-77
2021/07/11 05:48:44;;;;;;;5.70;2.13;;;;;;;;;;4977372;28;20101;-76
2021/07/11 05:51:10;;;;;;;3.50;2.08;;;;;;;;;;4976638;28;20027;-78
2021/07/11 05:53:36;;;;;;;3.95;2.13;;;;;;;;;;4942100;29;20110;-77
2021/07/11 05:56:02;;;;;;;8.02;2.10;;;;;;;;;;4960219;29;20122;-77
2021/07/11 05:58:28;;;;;;;4.85;1.98;;;;;;;;;;4960094;29;20027;-77
2021/07/11 06:00:54;;;;;;;4.70;1.70;;;;;;;;;;4955873;29;20039;-77
2021/07/11 06:03:20;;;;;;;5.35;1.58;;;;;;;;;;4956356;29;20035;-77
2021/07/11 06:05:46;;;;;;;3.92;1.80;;;;;;;;;;4939287;29;20399;-77
2021/07/11 06:08:12;;;;;;;4.57;1.77;;;;;;;;;;4954907;29;20019;-77
2021/07/11 06:10:38;;;;;;;4.93;1.88;;;;;;;;;;4953771;29;20019;-77
2021/07/11 06:13:04;;;;;;;2.92;1.70;;;;;;;;;;4959915;28;20027;-77
2021/07/11 06:15:31;;;;;;;2.70;1.83;;;;;;;;;;4973525;28;20054;-77
2021/07/11 06:17:57;;;;;;;4.28;1.90;;;;;;;;;;4974617;28;20034;-77
2021/07/11 06:20:23;;;;;;;8.07;2.20;;;;;;;;;;4967720;28;20081;-78
2021/07/11 06:22:49;;;;;;;5.35;1.90;;;;;;;;;;4955455;29;20023;-77
2021/07/11 06:25:16;;;;;;;4.97;1.60;;;;;;;;;;4938843;29;20027;-76
2021/07/11 06:27:43;;;;;;;4.65;1.58;;;;;;;;;;4953514;28;20035;-77
2021/07/11 06:30:10;;;;;;;3.40;1.35;;;;;;;;;;4960605;28;20023;-76
2021/07/11 06:32:40;;;;;;;2.70;1.80;;;;;;;;;;4973567;28;20019;-78
2021/07/11 06:35:07;;;;;;;4.57;1.75;;;;;;;;;;4973733;28;20031;-79
2021/07/11 06:37:33;;;;;;;5.05;1.40;;;;;;;;;;4974306;28;20023;-77
2021/07/11 06:39:59;;;;;;;5.68;1.75;;;;;;;;;;4975054;28;20061;-79
2021/07/11 06:42:25;;;;;;;2.78;1.40;;;;;;;;;;4976441;28;20026;-79
2021/07/11 06:44:51;;;;;;;4.40;1.50;;;;;;;;;;4977180;28;20030;-80
2021/07/11 06:47:17;;;;;;;5.38;1.70;;;;;;;;;;4971096;28;20028;-79
2021/07/11 06:49:43;;;;;;;7.72;1.40;;;;;;;;;;4956595;29;20054;-79
2021/07/11 06:52:09;;;;;;;1.80;1.23;;;;;;;;;;4966654;28;20021;-79
2021/07/11 06:54:35;;;;;;;3.90;1.35;;;;;;;;;;4959336;28;20043;-79
2021/07/11 06:57:01;;;;;;;3.35;1.60;;;;;;;;;;4979019;28;20085;-79
2021/07/11 06:59:27;;;;;;;4.40;1.33;;;;;;;;;;4970019;28;20027;-78
2021/07/11 07:01:53;;;;;;;4.38;1.42;;;;;;;;;;4954391;29;20415;-81
2021/07/11 07:04:19;;;;;;;2.30;1.40;;;;;;;;;;4955071;29;20600;-80
2021/07/11 07:06:45;;;;;;;4.68;1.40;;;;;;;;;;4954025;29;20055;-78
2021/07/11 07:09:12;;;;;;;2.75;1.08;;;;;;;;;;4953020;29;20035;-78
2021/07/11 07:11:38;;;;;;;4.20;1.08;;;;;;;;;;4953728;29;20410;-78
2021/07/11 07:14:04;;;;;;;3.33;1.52;;;;;;;;;;4954148;29;20031;-78
2021/07/11 07:16:30;;;;;;;2.85;1.23;;;;;;;;;;4951692;29;20040;-78
2021/07/11 07:18:56;;;;;;;6.80;1.60;;;;;;;;;;4934627;29;20027;-78
2021/07/11 07:21:22;;;;;;;2.83;1.33;;;;;;;;;;4942329;28;20038;-78
2021/07/11 07:23:48;;;;;;;4.82;1.70;;;;;;;;;;4956781;28;20035;-78
2021/07/11 07:26:14;;;;;;;3.25;1.25;;;;;;;;;;4955485;29;20036;-79
2021/07/11 07:28:40;;;;;;;2.30;1.20;;;;;;;;;;4957540;29;20042;-79
2021/07/11 07:31:07;;;;;;;4.18;1.25;;;;;;;;;;4958083;29;20361;-78
2021/07/11 07:33:33;;;;;;;5.10;1.17;;;;;;;;;;4957939;29;20039;-79
2021/07/11 07:35:59;;;;;;;4.82;1.05;;;;;;;;;;4958697;29;20027;-78
2021/07/11 07:38:25;;;;;;;3.90;1.33;;;;;;;;;;4958539;29;20114;-79
2021/07/11 07:40:51;;;;;;;2.55;1.13;;;;;;;;;;4958147;29;20066;-79
2021/07/11 07:43:17;;;;;;;3.10;1.27;;;;;;;;;;4957911;29;20043;-78
2021/07/11 07:45:44;;;;;;;2.50;1.20;;;;;;;;;;4946931;29;20040;-79
2021/07/11 07:48:10;;;;;;;3.55;1.40;;;;;;;;;;4939028;29;20034;-80
2021/07/11 07:50:37;;;;;;;2.72;1.30;;;;;;;;;;4946978;29;20042;-79
2021/07/11 07:53:03;;;;;;;2.38;1.23;;;;;;;;;;4983529;28;20107;-79
2021/07/11 07:55:31;;;;;;;2.85;1.05;;;;;;;;;;4986342;28;20078;-79
2021/07/11 07:57:57;;;;;;;2.88;1.30;;;;;;;;;;4967769;28;20030;-79
2021/07/11 08:00:24;;;;;;;2.85;1.60;;;;;;;;;;4986335;28;20042;-79
2021/07/11 08:02:51;;;;;;;4.90;1.42;;;;;;;;;;4986089;28;20023;-79
2021/07/11 08:05:17;;;;;;;2.80;1.20;;;;;;;;;;4985606;28;20086;-79
2021/07/11 08:07:45;;;;;;;5.75;1.60;;;;;;;;;;4986800;28;20030;-79
2021/07/11 08:10:12;;;;;;;1.88;1.30;;;;;;;;;;4985477;28;20023;-82
2021/07/11 08:12:38;;;;;;;1.52;1.20;;;;;;;;;;4984457;28;20081;-79
2021/07/11 08:15:05;;;;;;;4.25;1.40;;;;;;;;;;4966459;29;20055;-80
2021/07/11 08:17:32;;;;;;;1.58;1.10;;;;;;;;;;4966434;29;20054;-80
2021/07/11 08:19:58;;;;;;;4.72;1.20;;;;;;;;;;4966962;29;20043;-79
2021/07/11 08:22:24;;;;;;;3.13;1.10;;;;;;;;;;4967034;29;20087;-79
2021/07/11 08:24:50;;;;;;;3.65;1.50;;;;;;;;;;4965582;29;20139;-79
2021/07/11 08:27:16;;;;;;;4.18;1.45;;;;;;;;;;4965242;29;20119;-80
2021/07/11 08:29:42;;;;;;;2.92;1.35;;;;;;;;;;4963946;29;20114;-82
2021/07/11 08:32:08;;;;;;;3.33;1.42;;;;;;;;;;4950595;29;20088;-79
2021/07/11 08:34:34;;;;;;;2.72;1.08;;;;;;;;;;4963144;29;20023;-81
2021/07/11 08:37:02;;;;;;;2.42;1.00;;;;;;;;;;4947759;29;20034;-79
2021/07/11 08:39:28;;;;;;;5.63;1.85;;;;;;;;;;4964946;29;20026;-79
2021/07/11 08:42:07;;;;;;;3.65;1.35;;;;;;;;;;4955493;29;20036;-79
2021/07/11 08:44:33;;;;;;;6.93;1.30;;;24.50;93.80;;;;;;4946578;29;20075;-79
2021/07/11 08:46:59;;;;;;;3.78;1.30;;;23.00;99.90;;;;;;4927373;29;20102;-79
2021/07/11 08:49:24;;;;;;;4.40;1.40;;;20.70;99.90;;;;;;4944262;29;20074;-79
2021/07/11 08:51:57;;;;;;;2.13;1.20;;;22.20;99.90;;;;;;4960338;28;20031;-79
2021/07/11 08:54:23;;;;;;;5.47;1.08;;;22.30;99.90;;;;;;4965936;28;20035;-79
2021/07/11 08:56:49;;;;;;;2.38;1.20;;;22.20;99.90;;;;;;4982484;28;20484;-79
2021/07/11 08:59:14;;;;;;;5.65;1.38;;;22.10;99.90;;;;;;4981669;28;20146;-82
2021/07/11 09:01:40;;;;;;;4.00;1.42;;;22.40;99.90;;;;;;4984087;28;20105;-82
2021/07/11 09:04:09;;;;;;;2.15;1.10;;;22.50;99.90;;;;;;4982118;28;20037;-82
2021/07/11 09:06:47;;;;;;;3.13;1.60;;;22.40;99.90;;;;;;4977721;28;20027;-81
2021/07/11 09:09:24;;;;;;;2.83;1.25;;;22.50;99.90;;;;;;4963933;28;20054;-82
2021/07/11 09:12:03;;;;;;;5.25;1.35;;;22.50;99.90;;;;;;4946789;29;20167;-82
2021/07/11 09:14:31;;;;;;;6.07;1.23;;;23.00;99.90;;;;;;4961116;29;20031;-82
2021/07/11 09:16:58;;;;;;;3.30;1.02;;;22.80;99.90;;;;;;4961499;29;20539;-82
2021/07/11 09:19:25;;;;;;;4.60;1.40;;;23.30;99.90;;;;;;4945455;29;20039;-79
2021/07/11 09:22:03;;;;;;;7.13;1.30;;;23.40;99.90;;;;;;4964238;29;20019;-79
2021/07/11 09:24:33;;;;;;;5.43;1.13;;;23.50;99.90;;;;;;4964803;29;20370;-79
2021/07/11 09:27:13;;;;;;;4.13;1.30;;;23.40;99.90;;;;;;4962436;29;20022;-79
2021/07/11 09:29:41;;;;;;;5.38;1.20;;;23.40;99.90;;;;;;4959637;29;20028;-79
2021/07/11 09:32:08;;;;;;;4.03;1.65;;;23.60;99.90;;;;;;4961137;29;20189;-79
2021/07/11 09:34:35;;;;;;;2.08;1.05;;;23.70;99.90;;;;;;4960665;29;20457;-81
2021/07/11 09:37:07;;;;;;;2.17;1.25;;;23.30;99.90;;;;;;4943858;29;20039;-82
2021/07/11 09:39:33;;;;;;;1.88;1.15;;;23.30;99.90;;;;;;4940504;29;20032;-82
2021/07/11 09:42:01;;;;;;;2.47;1.05;;;23.20;99.90;;;;;;4940304;29;20044;-81
2021/07/11 09:44:43;;;;;;;3.30;1.30;;;23.10;99.90;;;;;;4941221;29;20032;-82
2021/07/11 09:47:20;;;;;;;4.38;1.40;;;23.30;99.90;;;;;;4946144;29;20079;-79
2021/07/11 09:50:12;;;;;;;4.07;1.00;;;23.60;99.90;;;;;;4945747;29;20113;-79
2021/07/11 09:52:45;;;;;;;1.73;1.08;;;24.30;99.90;;;;;;4957577;29;20020;-80
2021/07/11 09:55:18;;;;;;;5.55;1.55;;;24.90;99.90;;;;;;4959346;29;20054;-80
2021/07/11 09:57:46;;;;;;;5.10;1.55;;;25.40;99.90;;;;;;4959906;29;20054;-80
2021/07/11 10:00:18;;;;;;;4.07;1.30;;;25.70;99.90;;;;;;4958880;29;20038;-80
2021/07/11 10:02:45;;;;;;;6.25;1.35;;;25.40;99.90;;;;;;4961095;29;20027;-80
2021/07/11 10:05:12;;;;;;;0.98;0.82;;;25.50;99.90;;;;;;4963857;29;20034;-80
2021/07/11 10:07:38;;;;;;;1.95;0.98;;;25.90;99.90;;;;;;4962429;29;20051;-80
2021/07/11 10:10:09;;;;;;;3.95;1.45;;;25.60;99.90;;;;;;4959689;29;20039;-80
2021/07/11 10:12:35;;;;;;;3.40;1.20;;;25.80;99.90;;;;;;4960086;29;20029;-80
2021/07/11 10:15:01;;;;;;;5.63;1.30;;;25.60;99.90;;;;;;4959344;29;20052;-80
2021/07/11 10:17:27;;;;;;;2.25;1.23;;;26.00;99.90;;;;;;4959184;29;20108;-80
2021/07/11 10:19:54;;;;;;;5.18;1.73;;;26.00;99.90;;;;;;4958105;29;20443;-80
2021/07/11 10:22:20;;;;;;;3.28;1.83;;;25.50;99.90;;;;;;4941518;29;20106;-80
2021/07/11 10:24:49;;;;;;;4.57;1.10;;;25.50;99.90;;;;;;4958762;29;20040;-80
2021/07/11 10:27:24;;;;;;;2.58;1.17;;;26.20;99.10;;;;;;4958526;29;20106;-80
2021/07/11 10:29:53;;;;;;;6.65;1.58;;;26.20;98.40;;;;;;4956654;29;20396;-80
2021/07/11 10:32:27;;;;;;;3.17;1.70;;;26.40;98.70;;;;;;4940146;29;20034;-80
2021/07/11 10:34:54;;;;;;;4.38;1.67;;;27.00;99.10;;;;;;4957777;29;20090;-80
2021/07/11 10:37:22;;;;;;;2.10;0.98;;;27.30;99.20;;;;;;4957039;29;20039;-80
2021/07/11 10:40:08;;;;;;;2.35;1.30;;;26.70;96.70;;;;;;4956044;29;20102;-80
2021/07/11 10:42:34;;;;;;;3.38;1.40;;;26.70;97.60;;;;;;4956680;29;20105;-80
2021/07/11 10:45:10;;;;;;;1.42;1.27;;;26.70;97.60;;;;;;4957379;29;20031;-80
2021/07/11 10:47:36;;;;;;;2.95;1.05;;;26.50;96.50;;;;;;4939358;28;20035;-80
2021/07/11 10:50:03;;;;;;;1.63;1.30;;;25.90;99.10;;;;;;4956421;29;20023;-80
2021/07/11 10:52:29;;;;;;;2.95;1.38;;;26.00;97.40;;;;;;4940082;29;20067;-80
2021/07/11 10:54:59;;;;;;;3.78;1.20;;;27.10;97.00;;;;;;4957125;29;20039;-80
2021/07/11 10:57:34;;;;;;;3.25;1.27;;;28.60;94.40;;;;;;4940425;29;20058;-80
2021/07/11 11:00:17;;;;;;;3.50;1.35;;;28.20;91.60;;;;;;4955624;28;20031;-80
2021/07/11 11:02:45;;;;;;;3.30;1.40;;;28.40;92.40;;;;;;4956885;29;20488;-80
2021/07/11 11:05:25;;;;;;;4.15;1.60;;;28.20;92.10;;;;;;4957483;29;20111;-80
2021/07/11 11:07:56;;;;;;;5.20;1.23;;;27.50;93.90;;;;;;4957171;29;20081;-80
2021/07/11 11:10:26;;;;;;;1.75;1.25;;;26.80;93.90;;;;;;4956874;29;20020;-79
2021/07/11 11:12:59;;;;;;;2.40;1.42;;;26.80;94.10;;;;;;4957106;29;20106;-80
2021/07/11 11:15:33;;;;;;;4.40;1.23;;;26.40;95.30;;;;;;4939401;29;20177;-80
2021/07/11 11:17:58;;;;;;;5.47;1.40;;;26.70;95.20;;;;;;4957650;29;20420;-80
2021/07/11 11:20:27;;;;;;;2.60;1.20;;;26.50;94.10;;;;;;4957341;29;20027;-80
2021/07/11 11:22:54;;;;;;;2.45;1.10;;;26.30;95.10;;;;;;4956142;29;20087;-80
2021/07/11 11:25:21;;;;;;;2.53;1.17;;;26.00;95.10;;;;;;4955487;29;20114;-80
2021/07/11 11:27:53;;;;;;;4.32;1.20;;;26.20;94.20;;;;;;4955455;29;20035;-80
2021/07/11 11:30:22;;;;;;;2.78;1.27;;;26.20;94.70;;;;;;4955701;29;20051;-80
2021/07/11 11:32:55;;;;;;;3.60;1.30;;;25.60;95.30;;;;;;4957685;29;20551;-79
2021/07/11 11:35:23;;;;;;;2.22;1.20;;;24.40;98.70;;;;;;4957370;29;20031;-80
2021/07/11 11:37:51;;;;;;;2.78;1.25;;;24.10;99.60;;;;;;4940591;29;20027;-80
2021/07/11 11:40:18;;;;;;;2.53;1.35;;;23.70;99.90;;;;;;4956705;29;20058;-80
2021/07/11 11:42:51;;;;;;;3.40;1.50;;;23.10;99.90;;;;;;4957432;29;20059;-82
2021/07/11 11:45:19;;;;;;;3.60;1.33;;;23.00;99.90;;;;;;4960069;29;20114;-79
2021/07/11 11:47:56;;;;;;;4.15;1.50;;;22.90;99.90;;;;;;4958876;28;20034;-82
2021/07/11 11:50:22;;;;;;;2.53;1.65;;;22.80;99.90;;;;;;4963537;29;20023;-80
2021/07/11 11:52:47;;;;;;;3.38;1.52;;;22.80;99.90;;;;;;4978715;28;20027;-80
2021/07/11 11:55:14;;;;;;;2.20;1.30;;;22.80;99.90;;;;;;4983095;28;20093;-80
2021/07/11 11:57:41;;;;;;;4.82;1.35;;;22.50;99.90;;;;;;4967015;28;20031;-80
2021/07/11 12:00:15;;;;;;;2.90;1.40;;;22.30;99.90;;;;;;4979909;28;20551;-80
2021/07/11 12:02:42;;;;;;;5.95;1.27;;;21.70;99.90;;;;;;4977599;28;20066;-80
2021/07/11 12:05:12;;;;;;;1.80;1.10;;;21.50;99.90;;;;;;4977402;28;20031;-81
2021/07/11 12:07:39;;;;;;;2.97;1.13;;;21.40;99.90;;;;;;4977460;28;20027;-81
2021/07/11 12:10:06;;;;;;;1.92;1.10;;;21.60;99.90;;;;;;4977331;28;20098;-80
2021/07/11 12:12:32;;;;;;;3.53;1.23;;;21.50;99.90;;;;;;4963422;28;20078;-80
2021/07/11 12:14:59;;;;;;;1.77;0.85;;;21.60;99.90;;;;;;4981331;28;20038;-80
2021/07/11 12:17:33;;;;;;;4.88;1.13;;;21.90;99.90;;;;;;4980950;28;20034;-80
2021/07/11 12:19:59;;;;;;;3.05;1.00;;;22.30;99.90;;;;;;4982224;28;20069;-80
2021/07/11 12:22:32;;;;;;;2.33;1.00;;;22.50;99.90;;;;;;4981369;28;20039;-80
2021/07/11 12:25:28;;;;;;;2.67;1.48;;;22.80;99.90;;;;;;4979768;28;20035;-80
2021/07/11 12:28:00;;;;;;;1.40;0.80;;;23.00;99.90;;;;;;4963141;28;20034;-80
2021/07/11 12:30:36;;;;;;;3.25;1.00;;;23.30;99.90;;;;;;4979814;28;20047;-80
2021/07/11 12:33:02;;;;;;;2.50;1.17;;;23.50;99.90;;;;;;4979915;28;20031;-80
2021/07/11 12:35:28;;;;;;;2.22;1.13;;;24.10;99.90;;;;;;4980462;28;20034;-81
2021/07/11 12:37:56;;;;;;;2.00;1.02;;;24.30;99.90;;;;;;4962251;28;20474;-80
2021/07/11 12:40:28;;;;;;;2.55;1.02;;;25.00;99.90;;;;;;4961711;28;20473;-80
2021/07/11 12:43:20;;;;;;;1.75;1.02;;;25.90;99.90;;;;;;4978792;28;20034;-80
2021/07/11 12:46:08;;;;;;;2.47;1.20;;;25.90;99.80;;;;;;4980550;28;20449;-81
2021/07/11 12:48:51;;;;;;;1.73;1.17;;;25.40;99.20;;;;;;4979338;28;20039;-81
2021/07/11 12:51:29;;;;;;;2.92;1.13;;;25.10;99.90;;;;;;4964245;28;20023;-81
2021/07/11 12:54:16;;;;;;;3.95;1.10;;;25.80;99.90;;;;;;4961236;29;20023;-81
2021/07/11 12:57:00;;;;;;;1.33;1.00;;;25.70;98.90;;;;;;4959594;29;20111;-81
2021/07/11 12:59:37;;;;;;;2.17;1.00;;;26.90;97.60;;;;;;4959237;29;20039;-81
2021/07/11 13:02:09;;;;;;;4.35;1.15;;;26.70;94.80;;;;;;4943281;29;20077;-81
2021/07/11 13:04:40;;;;;;;2.10;1.10;;;26.70;95.80;;;;;;4958276;29;20493;-81
2021/07/11 13:07:11;;;;;;;3.38;1.00;;;26.40;94.50;;;;;;4958089;29;20059;-82
2021/07/11 13:09:40;;;;;;;2.28;1.00;;;26.70;95.30;;;;;;4957612;29;20027;-80
2021/07/11 13:12:06;;;;;;;3.10;1.05;;;27.60;92.40;;;;;;4957931;29;20020;-81
2021/07/11 13:14:34;;;;;;;4.20;0.90;;;28.30;91.60;;;;;;4958385;29;20062;-81
2021/07/11 13:17:00;;;;;;;1.33;0.80;;;29.30;87.30;;;;;;4958311;29;20031;-81
2021/07/11 13:19:25;;;;;;;1.23;0.90;;;29.10;84.20;;;;;;4957581;29;20381;-82
2021/07/11 13:21:51;;;;;;;2.25;0.82;;;28.20;85.80;;;;;;4964749;28;20535;-81
2021/07/11 13:24:17;;;;;;;2.10;1.20;;;26.90;90.20;;;;;;4976575;28;20487;-81
2021/07/11 13:26:42;;;;;;;1.90;1.05;;;25.80;91.70;;;;;;4959902;28;20082;-81
2021/07/11 13:29:08;;;;;;;2.30;0.80;;;25.70;93.30;;;;;;4976895;28;20035;-82
2021/07/11 13:31:34;;;;;;;1.02;0.73;;;25.10;94.00;;;;;;4961486;28;20062;-80
2021/07/11 13:34:01;;;;;;;1.52;0.70;;;25.30;94.30;;;;;;4978771;28;20031;-80
2021/07/11 13:36:27;;;;;;;4.20;1.17;;;24.90;95.80;;;;;;4982756;28;20495;-80
2021/07/11 13:38:52;;;;;;;0.93;0.82;;;25.50;95.30;;;;;;4981042;28;20074;-81
2021/07/11 13:41:18;;;;;;;1.75;0.90;;;25.20;95.50;;;;;;4977167;28;20045;-81
2021/07/11 13:43:44;;;;;;;3.63;0.90;;;25.00;95.80;;;;;;4943373;28;20035;-82
2021/07/11 13:46:09;;;;;;;2.00;1.00;;;25.20;96.90;;;;;;4976847;28;20023;-81
2021/07/11 13:48:35;;;;;;;1.25;0.88;;;25.20;94.90;;;;;;4976469;28;20562;-82
2021/07/11 13:51:03;;;;;;;3.08;1.02;;;25.20;95.40;;;;;;4998138;23;20070;-73
2021/07/11 13:53:29;;;;;;;2.95;0.90;;;25.30;95.50;;;;;;4993742;28;20483;-75
2021/07/11 13:55:55;;;;;;;0.85;0.70;;;25.60;94.30;;;;;;4994059;28;20113;-74
2021/07/11 13:58:22;;;;;;;2.00;0.80;;;25.60;93.20;;;;;;4993460;28;20106;-73
2021/07/11 14:00:48;;;;;;;2.08;0.70;;;25.50;92.70;;;;;;4988446;28;20042;-74